sensor_id;sensor_type;location;lat;lon;timestamp;temperature;humidity
21340;DHT22;10828;47.064;15.422;2022-11-25T00:02:17;4.00;99.90
21340;DHT22;10828;47.064;15.422;2022-11-25T00:04:44;3.90;99.90
21340;DHT22;10828;47.064;15.422;2022-11-25T00:07:11;3.90;99.90
21340;DHT22;10828;47.064;15.422;2022-11-25T00:09:38;3.90;99.90
21340;DHT22;10828;47.064;15.422;2022-11-25T00:12:05;4.00;99.90
21340;DHT22;10828;47.064;15.422;2022-11-25T00:14:33;4.10;99.90
21340;DHT22;10828;47.064;15.422;2022-11-25T00:16:59;4.00;99.90
21340;DHT22;10828;47.064;15.422;2022-11-25T00:19:29;4.00;99.90
21340;DHT22;10828;47.064;15.422;2022-11-25T00:21:56;3.90;99.90
21340;DHT22;10828;47.064;15.422;2022-11-25T00:24:23;4.00;99.90
21340;DHT22;10828;47.064;15.422;2022-11-25T00:26:50;4.00;99.90
21340;DHT22;10828;47.064;15.422;2022-11-25T00:29:23;4.00;99.90
21340;DHT22;10828;47.064;15.422;2022-11-25T00:31:51;4.00;99.90
21340;DHT22;10828;47.064;15.422;2022-11-25T00:34:18;4.00;99.90
21340;DHT22;10828;47.064;15.422;2022-11-25T00:36:45;4.00;99.90
21340;DHT22;10828;47.064;15.422;2022-11-25T00:39:16;4.00;99.90
21340;DHT22;10828;47.064;15.422;2022-11-25T00:41:44;3.90;99.90
21340;DHT22;10828;47.064;15.422;2022-11-25T00:44:42;3.80;99.90
21340;DHT22;10828;47.064;15.422;2022-11-25T00:47:17;3.80;99.90
21340;DHT22;10828;47.064;15.422;2022-11-25T00:49:48;3.80;99.90
21340;DHT22;10828;47.064;15.422;2022-11-25T00:52:21;3.80;99.90
21340;DHT22;10828;47.064;15.422;2022-11-25T00:54:49;3.70;99.90
21340;DHT22;10828;47.064;15.422;2022-11-25T00:57:20;3.70;99.90
21340;DHT22;10828;47.064;15.422;2022-11-25T00:59:47;3.70;99.90
21340;DHT22;10828;47.064;15.422;2022-11-25T01:02:17;3.70;99.90
21340;DHT22;10828;47.064;15.422;2022-11-25T01:04:45;3.60;99.90
21340;DHT22;10828;47.064;15.422;2022-11-25T01:07:14;3.60;99.90
21340;DHT22;10828;47.064;15.422;2022-11-25T01:09:39;3.50;99.90
21340;DHT22;10828;47.064;15.422;2022-11-25T01:12:06;3.50;99.90
21340;DHT22;10828;47.064;15.422;2022-11-25T01:14:33;3.50;99.90
21340;DHT22;10828;47.064;15.422;2022-11-25T01:17:00;3.50;99.90
21340;DHT22;10828;47.064;15.422;2022-11-25T01:19:29;3.50;99.90
21340;DHT22;10828;47.064;15.422;2022-11-25T01:21:55;3.50;99.90
21340;DHT22;10828;47.064;15.422;2022-11-25T01:24:23;3.60;99.90
21340;DHT22;10828;47.064;15.422;2022-11-25T01:26:53;3.60;99.90
21340;DHT22;10828;47.064;15.422;2022-11-25T01:29:21;3.70;99.90
21340;DHT22;10828;47.064;15.422;2022-11-25T01:31:49;3.60;99.90
21340;DHT22;10828;47.064;15.422;2022-11-25T01:34:22;3.60;99.90
21340;DHT22;10828;47.064;15.422;2022-11-25T01:36:50;3.50;99.90
21340;DHT22;10828;47.064;15.422;2022-11-25T01:39:19;3.50;99.90
21340;DHT22;10828;47.064;15.422;2022-11-25T01:41:47;3.50;99.90
21340;DHT22;10828;47.064;15.422;2022-11-25T01:44:18;3.40;99.90
21340;DHT22;10828;47.064;15.422;2022-11-25T01:46:59;3.40;99.90
21340;DHT22;10828;47.064;15.422;2022-11-25T01:52:15;3.40;99.90
21340;DHT22;10828;47.064;15.422;2022-11-25T01:54:56;3.40;99.90
21340;DHT22;10828;47.064;15.422;2022-11-25T01:57:28;3.30;99.90
21340;DHT22;10828;47.064;15.422;2022-11-25T02:00:02;3.10;99.90
21340;DHT22;10828;47.064;15.422;2022-11-25T02:02:30;3.20;99.90
21340;DHT22;10828;47.064;15.422;2022-11-25T02:04:57;3.20;99.90
21340;DHT22;10828;47.064;15.422;2022-11-25T02:07:41;3.20;99.90
21340;DHT22;10828;47.064;15.422;2022-11-25T02:10:17;3.10;99.90
21340;DHT22;10828;47.064;15.422;2022-11-25T02:12:46;3.00;99.90
21340;DHT22;10828;47.064;15.422;2022-11-25T02:15:18;3.00;99.90
21340;DHT22;10828;47.064;15.422;2022-11-25T02:17:45;3.00;99.90
21340;DHT22;10828;47.064;15.422;2022-11-25T02:20:18;3.10;99.90
21340;DHT22;10828;47.064;15.422;2022-11-25T02:23:09;3.10;99.90
21340;DHT22;10828;47.064;15.422;2022-11-25T02:25:39;3.10;99.90
21340;DHT22;10828;47.064;15.422;2022-11-25T02:28:09;3.10;99.90
21340;DHT22;10828;47.064;15.422;2022-11-25T02:30:38;3.10;99.90
21340;DHT22;10828;47.064;15.422;2022-11-25T02:33:04;3.20;99.90
21340;DHT22;10828;47.064;15.422;2022-11-25T02:35:34;3.20;99.90
21340;DHT22;10828;47.064;15.422;2022-11-25T02:38:21;3.30;99.90
21340;DHT22;10828;47.064;15.422;2022-11-25T02:43:35;3.30;99.90
21340;DHT22;10828;47.064;15.422;2022-11-25T02:48:31;3.00;99.90
21340;DHT22;10828;47.064;15.422;2022-11-25T02:50:58;2.90;99.90
21340;DHT22;10828;47.064;15.422;2022-11-25T02:53:26;2.90;99.90
21340;DHT22;10828;47.064;15.422;2022-11-25T02:55:52;2.90;99.90
21340;DHT22;10828;47.064;15.422;2022-11-25T02:58:21;3.00;99.90
21340;DHT22;10828;47.064;15.422;2022-11-25T03:00:47;3.00;99.90
21340;DHT22;10828;47.064;15.422;2022-11-25T03:03:14;3.00;99.90
21340;DHT22;10828;47.064;15.422;2022-11-25T03:05:41;2.90;99.90
21340;DHT22;10828;47.064;15.422;2022-11-25T03:08:09;2.90;99.90
21340;DHT22;10828;47.064;15.422;2022-11-25T03:10:38;2.90;99.90
21340;DHT22;10828;47.064;15.422;2022-11-25T03:13:05;2.80;99.90
21340;DHT22;10828;47.064;15.422;2022-11-25T03:15:31;2.70;99.90
21340;DHT22;10828;47.064;15.422;2022-11-25T03:17:57;2.60;99.90
21340;DHT22;10828;47.064;15.422;2022-11-25T03:20:23;2.50;99.90
21340;DHT22;10828;47.064;15.422;2022-11-25T03:22:49;2.50;99.90
21340;DHT22;10828;47.064;15.422;2022-11-25T03:25:16;2.50;99.90
21340;DHT22;10828;47.064;15.422;2022-11-25T03:27:42;2.60;99.90
21340;DHT22;10828;47.064;15.422;2022-11-25T03:30:14;2.60;99.90
21340;DHT22;10828;47.064;15.422;2022-11-25T03:32:42;2.70;99.90
21340;DHT22;10828;47.064;15.422;2022-11-25T03:35:08;2.70;99.90
21340;DHT22;10828;47.064;15.422;2022-11-25T03:37:37;2.80;99.90
21340;DHT22;10828;47.064;15.422;2022-11-25T03:40:04;2.80;99.90
21340;DHT22;10828;47.064;15.422;2022-11-25T03:42:33;2.80;99.90
21340;DHT22;10828;47.064;15.422;2022-11-25T03:44:59;2.90;99.90
21340;DHT22;10828;47.064;15.422;2022-11-25T03:47:26;2.90;99.90
21340;DHT22;10828;47.064;15.422;2022-11-25T03:49:52;2.90;99.90
21340;DHT22;10828;47.064;15.422;2022-11-25T03:52:21;2.90;99.90
21340;DHT22;10828;47.064;15.422;2022-11-25T03:54:49;2.80;99.90
21340;DHT22;10828;47.064;15.422;2022-11-25T03:57:14;2.90;99.90
21340;DHT22;10828;47.064;15.422;2022-11-25T03:59:41;2.80;99.90
21340;DHT22;10828;47.064;15.422;2022-11-25T04:02:07;2.80;99.90
21340;DHT22;10828;47.064;15.422;2022-11-25T04:04:33;2.80;99.90
21340;DHT22;10828;47.064;15.422;2022-11-25T04:06:59;2.80;99.90
21340;DHT22;10828;47.064;15.422;2022-11-25T04:09:26;2.80;99.90
21340;DHT22;10828;47.064;15.422;2022-11-25T04:11:53;2.90;99.90
21340;DHT22;10828;47.064;15.422;2022-11-25T04:14:37;2.90;99.90
21340;DHT22;10828;47.064;15.422;2022-11-25T04:17:03;2.90;99.90
21340;DHT22;10828;47.064;15.422;2022-11-25T04:19:31;3.00;99.90
21340;DHT22;10828;47.064;15.422;2022-11-25T04:21:58;3.00;99.90
21340;DHT22;10828;47.064;15.422;2022-11-25T04:24:27;3.10;99.90
21340;DHT22;10828;47.064;15.422;2022-11-25T04:26:54;3.20;99.90
21340;DHT22;10828;47.064;15.422;2022-11-25T04:29:21;3.10;99.90
21340;DHT22;10828;47.064;15.422;2022-11-25T04:31:48;3.00;99.90
21340;DHT22;10828;47.064;15.422;2022-11-25T04:34:16;3.10;99.90
21340;DHT22;10828;47.064;15.422;2022-11-25T04:36:42;3.10;99.90
21340;DHT22;10828;47.064;15.422;2022-11-25T04:39:09;3.00;99.90
21340;DHT22;10828;47.064;15.422;2022-11-25T04:41:42;3.00;99.90
21340;DHT22;10828;47.064;15.422;2022-11-25T04:44:09;3.00;99.90
21340;DHT22;10828;47.064;15.422;2022-11-25T04:46:41;3.00;99.90
21340;DHT22;10828;47.064;15.422;2022-11-25T04:49:09;3.00;99.90
21340;DHT22;10828;47.064;15.422;2022-11-25T04:51:36;3.00;99.90
21340;DHT22;10828;47.064;15.422;2022-11-25T04:54:04;3.00;99.90
21340;DHT22;10828;47.064;15.422;2022-11-25T04:56:31;3.00;99.90
21340;DHT22;10828;47.064;15.422;2022-11-25T04:58:58;2.90;99.90
21340;DHT22;10828;47.064;15.422;2022-11-25T05:01:44;3.00;99.90
21340;DHT22;10828;47.064;15.422;2022-11-25T05:04:11;3.00;99.90
21340;DHT22;10828;47.064;15.422;2022-11-25T05:06:37;3.00;99.90
21340;DHT22;10828;47.064;15.422;2022-11-25T05:09:03;2.90;99.90
21340;DHT22;10828;47.064;15.422;2022-11-25T05:11:30;2.90;99.90
21340;DHT22;10828;47.064;15.422;2022-11-25T05:13:57;2.80;99.90
21340;DHT22;10828;47.064;15.422;2022-11-25T05:16:25;2.50;99.90
21340;DHT22;10828;47.064;15.422;2022-11-25T05:18:54;2.30;99.90
21340;DHT22;10828;47.064;15.422;2022-11-25T05:21:22;2.30;99.90
21340;DHT22;10828;47.064;15.422;2022-11-25T05:23:50;2.10;99.90
21340;DHT22;10828;47.064;15.422;2022-11-25T05:26:17;1.90;99.90
21340;DHT22;10828;47.064;15.422;2022-11-25T05:28:44;1.80;99.90
21340;DHT22;10828;47.064;15.422;2022-11-25T05:31:12;1.70;99.90
21340;DHT22;10828;47.064;15.422;2022-11-25T05:33:41;1.50;99.90
21340;DHT22;10828;47.064;15.422;2022-11-25T05:36:08;1.40;99.90
21340;DHT22;10828;47.064;15.422;2022-11-25T05:38:36;1.40;99.90
21340;DHT22;10828;47.064;15.422;2022-11-25T05:41:05;1.30;99.90
21340;DHT22;10828;47.064;15.422;2022-11-25T05:43:32;1.20;99.90
21340;DHT22;10828;47.064;15.422;2022-11-25T05:46:04;1.20;99.90
21340;DHT22;10828;47.064;15.422;2022-11-25T05:48:32;1.20;99.90
21340;DHT22;10828;47.064;15.422;2022-11-25T05:51:03;1.30;99.90
21340;DHT22;10828;47.064;15.422;2022-11-25T05:53:32;1.30;99.90
21340;DHT22;10828;47.064;15.422;2022-11-25T05:56:00;1.20;99.90
21340;DHT22;10828;47.064;15.422;2022-11-25T05:58:28;1.30;99.90
21340;DHT22;10828;47.064;15.422;2022-11-25T06:01:09;1.50;99.90
21340;DHT22;10828;47.064;15.422;2022-11-25T06:03:37;1.70;99.90
21340;DHT22;10828;47.064;15.422;2022-11-25T06:06:05;1.70;99.90
21340;DHT22;10828;47.064;15.422;2022-11-25T06:08:38;1.70;99.90
21340;DHT22;10828;47.064;15.422;2022-11-25T06:11:08;1.70;99.90
21340;DHT22;10828;47.064;15.422;2022-11-25T06:13:37;1.70;99.90
21340;DHT22;10828;47.064;15.422;2022-11-25T06:16:11;1.70;99.90
21340;DHT22;10828;47.064;15.422;2022-11-25T06:18:39;1.60;99.90
21340;DHT22;10828;47.064;15.422;2022-11-25T06:21:08;1.60;99.90
21340;DHT22;10828;47.064;15.422;2022-11-25T06:23:52;1.60;99.90
21340;DHT22;10828;47.064;15.422;2022-11-25T06:26:21;1.60;99.90
21340;DHT22;10828;47.064;15.422;2022-11-25T06:28:51;1.60;99.90
21340;DHT22;10828;47.064;15.422;2022-11-25T06:31:22;1.60;99.90
21340;DHT22;10828;47.064;15.422;2022-11-25T06:33:52;1.50;99.90
21340;DHT22;10828;47.064;15.422;2022-11-25T06:36:20;1.50;99.90
21340;DHT22;10828;47.064;15.422;2022-11-25T06:38:50;1.40;99.90
21340;DHT22;10828;47.064;15.422;2022-11-25T06:41:19;1.30;99.90
21340;DHT22;10828;47.064;15.422;2022-11-25T06:43:46;1.20;99.90
21340;DHT22;10828;47.064;15.422;2022-11-25T06:46:17;1.20;99.90
21340;DHT22;10828;47.064;15.422;2022-11-25T06:48:44;1.10;99.90
21340;DHT22;10828;47.064;15.422;2022-11-25T06:51:13;1.00;99.90
21340;DHT22;10828;47.064;15.422;2022-11-25T06:53:41;1.00;99.90
21340;DHT22;10828;47.064;15.422;2022-11-25T06:56:19;1.00;99.90
21340;DHT22;10828;47.064;15.422;2022-11-25T06:58:49;1.10;99.90
21340;DHT22;10828;47.064;15.422;2022-11-25T07:03:48;1.30;99.90
21340;DHT22;10828;47.064;15.422;2022-11-25T07:06:18;1.40;99.90
21340;DHT22;10828;47.064;15.422;2022-11-25T07:08:46;1.40;99.90
21340;DHT22;10828;47.064;15.422;2022-11-25T07:13:45;1.40;99.90
21340;DHT22;10828;47.064;15.422;2022-11-25T07:16:14;1.40;99.90
21340;DHT22;10828;47.064;15.422;2022-11-25T07:18:40;1.50;99.90
21340;DHT22;10828;47.064;15.422;2022-11-25T07:21:14;1.50;99.90
21340;DHT22;10828;47.064;15.422;2022-11-25T07:23:44;1.50;99.90
21340;DHT22;10828;47.064;15.422;2022-11-25T07:26:17;1.50;99.90
21340;DHT22;10828;47.064;15.422;2022-11-25T07:28:44;1.50;99.90
21340;DHT22;10828;47.064;15.422;2022-11-25T07:31:34;1.60;99.90
21340;DHT22;10828;47.064;15.422;2022-11-25T07:34:08;1.70;99.90
21340;DHT22;10828;47.064;15.422;2022-11-25T07:36:37;1.80;99.90
21340;DHT22;10828;47.064;15.422;2022-11-25T07:39:07;2.00;99.90
21340;DHT22;10828;47.064;15.422;2022-11-25T07:41:36;2.10;99.90
21340;DHT22;10828;47.064;15.422;2022-11-25T07:44:05;2.20;99.90
21340;DHT22;10828;47.064;15.422;2022-11-25T07:46:38;2.30;99.90
21340;DHT22;10828;47.064;15.422;2022-11-25T07:49:09;2.40;99.90
21340;DHT22;10828;47.064;15.422;2022-11-25T07:51:46;2.60;99.90
21340;DHT22;10828;47.064;15.422;2022-11-25T07:54:13;2.80;99.90
21340;DHT22;10828;47.064;15.422;2022-11-25T07:56:44;2.90;99.90
21340;DHT22;10828;47.064;15.422;2022-11-25T07:59:16;3.10;99.90
21340;DHT22;10828;47.064;15.422;2022-11-25T08:01:44;3.20;99.90
21340;DHT22;10828;47.064;15.422;2022-11-25T08:04:13;3.40;99.90
21340;DHT22;10828;47.064;15.422;2022-11-25T08:06:42;3.60;99.90
21340;DHT22;10828;47.064;15.422;2022-11-25T08:09:13;3.70;99.90
21340;DHT22;10828;47.064;15.422;2022-11-25T08:11:41;3.90;99.90
21340;DHT22;10828;47.064;15.422;2022-11-25T08:14:07;4.00;99.90
21340;DHT22;10828;47.064;15.422;2022-11-25T08:16:42;4.30;99.90
21340;DHT22;10828;47.064;15.422;2022-11-25T08:19:11;4.30;99.90
21340;DHT22;10828;47.064;15.422;2022-11-25T08:21:39;4.30;99.90
21340;DHT22;10828;47.064;15.422;2022-11-25T08:24:16;4.40;99.90
21340;DHT22;10828;47.064;15.422;2022-11-25T08:26:43;4.50;99.90
21340;DHT22;10828;47.064;15.422;2022-11-25T08:29:13;4.60;99.90
21340;DHT22;10828;47.064;15.422;2022-11-25T08:31:42;4.70;99.90
21340;DHT22;10828;47.064;15.422;2022-11-25T08:34:15;4.80;99.90
21340;DHT22;10828;47.064;15.422;2022-11-25T08:36:42;4.90;99.90
21340;DHT22;10828;47.064;15.422;2022-11-25T08:39:09;4.90;99.90
21340;DHT22;10828;47.064;15.422;2022-11-25T08:41:39;4.90;99.90
21340;DHT22;10828;47.064;15.422;2022-11-25T08:44:09;5.00;99.90
21340;DHT22;10828;47.064;15.422;2022-11-25T08:46:39;5.00;99.90
21340;DHT22;10828;47.064;15.422;2022-11-25T08:49:08;5.00;99.90
21340;DHT22;10828;47.064;15.422;2022-11-25T08:51:37;5.10;99.90
21340;DHT22;10828;47.064;15.422;2022-11-25T08:54:06;5.30;99.90
21340;DHT22;10828;47.064;15.422;2022-11-25T08:56:35;5.40;99.90
21340;DHT22;10828;47.064;15.422;2022-11-25T08:59:03;5.60;99.90
21340;DHT22;10828;47.064;15.422;2022-11-25T09:01:31;5.70;99.90
21340;DHT22;10828;47.064;15.422;2022-11-25T09:04:00;5.80;99.90
21340;DHT22;10828;47.064;15.422;2022-11-25T09:06:33;5.70;99.90
21340;DHT22;10828;47.064;15.422;2022-11-25T09:09:05;5.80;99.90
21340;DHT22;10828;47.064;15.422;2022-11-25T09:11:38;5.80;99.90
21340;DHT22;10828;47.064;15.422;2022-11-25T09:14:06;6.00;99.90
21340;DHT22;10828;47.064;15.422;2022-11-25T09:16:38;6.10;99.90
21340;DHT22;10828;47.064;15.422;2022-11-25T09:19:05;6.20;99.90
21340;DHT22;10828;47.064;15.422;2022-11-25T09:21:32;6.30;99.90
21340;DHT22;10828;47.064;15.422;2022-11-25T09:23:58;6.40;99.90
21340;DHT22;10828;47.064;15.422;2022-11-25T09:26:30;6.50;99.90
21340;DHT22;10828;47.064;15.422;2022-11-25T09:29:02;6.70;99.90
21340;DHT22;10828;47.064;15.422;2022-11-25T09:31:30;6.90;99.90
21340;DHT22;10828;47.064;15.422;2022-11-25T09:33:58;7.00;99.90
21340;DHT22;10828;47.064;15.422;2022-11-25T09:36:25;7.20;99.90
21340;DHT22;10828;47.064;15.422;2022-11-25T09:38:52;7.30;99.90
21340;DHT22;10828;47.064;15.422;2022-11-25T09:41:46;7.40;99.90
21340;DHT22;10828;47.064;15.422;2022-11-25T09:50:58;7.70;99.90
21340;DHT22;10828;47.064;15.422;2022-11-25T09:53:57;7.80;99.90
21340;DHT22;10828;47.064;15.422;2022-11-25T09:56:33;8.00;99.90
21340;DHT22;10828;47.064;15.422;2022-11-25T09:59:18;8.10;99.90
21340;DHT22;10828;47.064;15.422;2022-11-25T10:01:53;8.20;99.90
21340;DHT22;10828;47.064;15.422;2022-11-25T10:04:50;8.20;99.90
21340;DHT22;10828;47.064;15.422;2022-11-25T10:07:35;8.30;99.90
21340;DHT22;10828;47.064;15.422;2022-11-25T10:10:09;8.40;99.90
21340;DHT22;10828;47.064;15.422;2022-11-25T10:12:42;8.50;99.90
21340;DHT22;10828;47.064;15.422;2022-11-25T10:18:00;8.90;99.90
21340;DHT22;10828;47.064;15.422;2022-11-25T10:20:40;9.10;99.90
21340;DHT22;10828;47.064;15.422;2022-11-25T10:25:44;9.50;99.90
21340;DHT22;10828;47.064;15.422;2022-11-25T10:28:37;9.60;99.90
21340;DHT22;10828;47.064;15.422;2022-11-25T10:31:17;9.70;99.90
21340;DHT22;10828;47.064;15.422;2022-11-25T10:36:32;9.80;99.90
21340;DHT22;10828;47.064;15.422;2022-11-25T10:39:14;9.90;99.90
21340;DHT22;10828;47.064;15.422;2022-11-25T10:42:03;9.90;99.90
21340;DHT22;10828;47.064;15.422;2022-11-25T10:44:37;9.80;99.90
21340;DHT22;10828;47.064;15.422;2022-11-25T10:50:23;9.60;99.90
21340;DHT22;10828;47.064;15.422;2022-11-25T10:53:00;9.70;99.90
21340;DHT22;10828;47.064;15.422;2022-11-25T10:55:30;9.80;99.90
21340;DHT22;10828;47.064;15.422;2022-11-25T10:57:59;9.80;99.90
21340;DHT22;10828;47.064;15.422;2022-11-25T11:00:45;9.90;99.90
21340;DHT22;10828;47.064;15.422;2022-11-25T11:03:21;9.90;99.90
21340;DHT22;10828;47.064;15.422;2022-11-25T11:05:51;9.90;99.90
21340;DHT22;10828;47.064;15.422;2022-11-25T11:08:27;10.10;99.90
21340;DHT22;10828;47.064;15.422;2022-11-25T11:11:17;10.20;99.90
21340;DHT22;10828;47.064;15.422;2022-11-25T11:13:45;10.20;99.90
21340;DHT22;10828;47.064;15.422;2022-11-25T11:16:38;10.20;99.90
21340;DHT22;10828;47.064;15.422;2022-11-25T11:19:26;10.10;99.90
21340;DHT22;10828;47.064;15.422;2022-11-25T11:21:54;10.10;99.90
21340;DHT22;10828;47.064;15.422;2022-11-25T11:24:32;10.20;99.90
21340;DHT22;10828;47.064;15.422;2022-11-25T11:29:36;10.10;99.90
21340;DHT22;10828;47.064;15.422;2022-11-25T11:32:06;10.20;99.90
21340;DHT22;10828;47.064;15.422;2022-11-25T11:35:02;10.30;99.90
21340;DHT22;10828;47.064;15.422;2022-11-25T11:37:43;10.40;99.90
21340;DHT22;10828;47.064;15.422;2022-11-25T11:43:35;10.60;99.90
21340;DHT22;10828;47.064;15.422;2022-11-25T11:48:49;10.40;99.90
21340;DHT22;10828;47.064;15.422;2022-11-25T11:54:35;10.20;99.90
21340;DHT22;10828;47.064;15.422;2022-11-25T12:00:17;10.30;99.90
21340;DHT22;10828;47.064;15.422;2022-11-25T12:05:19;10.30;99.90
21340;DHT22;10828;47.064;15.422;2022-11-25T12:08:09;10.30;99.90
21340;DHT22;10828;47.064;15.422;2022-11-25T12:10:39;10.30;99.90
21340;DHT22;10828;47.064;15.422;2022-11-25T12:13:39;10.40;99.90
21340;DHT22;10828;47.064;15.422;2022-11-25T12:16:12;10.30;99.90
21340;DHT22;10828;47.064;15.422;2022-11-25T12:19:02;10.50;99.90
21340;DHT22;10828;47.064;15.422;2022-11-25T12:21:54;10.60;99.90
21340;DHT22;10828;47.064;15.422;2022-11-25T12:24:27;10.60;99.90
21340;DHT22;10828;47.064;15.422;2022-11-25T12:27:05;10.70;99.90
21340;DHT22;10828;47.064;15.422;2022-11-25T12:29:47;10.70;99.90
21340;DHT22;10828;47.064;15.422;2022-11-25T12:40:28;10.80;99.90
21340;DHT22;10828;47.064;15.422;2022-11-25T12:46:04;10.90;99.90
21340;DHT22;10828;47.064;15.422;2022-11-25T12:48:40;11.00;99.90
21340;DHT22;10828;47.064;15.422;2022-11-25T12:51:20;11.00;99.90
21340;DHT22;10828;47.064;15.422;2022-11-25T12:54:15;11.00;99.90
21340;DHT22;10828;47.064;15.422;2022-11-25T12:59:59;11.30;99.90
21340;DHT22;10828;47.064;15.422;2022-11-25T13:14:12;11.90;99.90
21340;DHT22;10828;47.064;15.422;2022-11-25T13:16:41;12.00;99.90
21340;DHT22;10828;47.064;15.422;2022-11-25T13:19:10;12.10;99.90
21340;DHT22;10828;47.064;15.422;2022-11-25T13:24:37;12.40;99.90
21340;DHT22;10828;47.064;15.422;2022-11-25T13:27:54;12.50;99.90
21340;DHT22;10828;47.064;15.422;2022-11-25T13:38:34;12.50;99.90
21340;DHT22;10828;47.064;15.422;2022-11-25T13:46:40;12.40;99.90
21340;DHT22;10828;47.064;15.422;2022-11-25T13:52:07;11.70;99.90
21340;DHT22;10828;47.064;15.422;2022-11-25T13:54:52;11.50;99.90
21340;DHT22;10828;47.064;15.422;2022-11-25T13:57:27;11.30;99.90
21340;DHT22;10828;47.064;15.422;2022-11-25T14:00:40;11.10;99.90
21340;DHT22;10828;47.064;15.422;2022-11-25T14:02:48;11.00;99.90
21340;DHT22;10828;47.064;15.422;2022-11-25T14:05:40;10.90;99.90
21340;DHT22;10828;47.064;15.422;2022-11-25T14:16:48;10.50;99.90
21340;DHT22;10828;47.064;15.422;2022-11-25T14:25:12;10.30;99.90
21340;DHT22;10828;47.064;15.422;2022-11-25T14:27:56;10.20;99.90
21340;DHT22;10828;47.064;15.422;2022-11-25T14:30:25;10.00;99.90
21340;DHT22;10828;47.064;15.422;2022-11-25T14:33:00;10.00;99.90
21340;DHT22;10828;47.064;15.422;2022-11-25T14:36:01;10.00;99.90
21340;DHT22;10828;47.064;15.422;2022-11-25T14:38:39;10.00;99.90
21340;DHT22;10828;47.064;15.422;2022-11-25T14:41:35;10.00;99.90
21340;DHT22;10828;47.064;15.422;2022-11-25T14:44:17;10.00;99.90
21340;DHT22;10828;47.064;15.422;2022-11-25T14:46:57;9.80;99.90
21340;DHT22;10828;47.064;15.422;2022-11-25T14:49:49;9.80;99.90
21340;DHT22;10828;47.064;15.422;2022-11-25T14:52:25;9.70;99.90
21340;DHT22;10828;47.064;15.422;2022-11-25T14:54:55;9.60;99.90
21340;DHT22;10828;47.064;15.422;2022-11-25T14:57:25;9.50;99.90
21340;DHT22;10828;47.064;15.422;2022-11-25T14:59:52;9.40;99.90
21340;DHT22;10828;47.064;15.422;2022-11-25T15:02:29;9.40;99.90
21340;DHT22;10828;47.064;15.422;2022-11-25T15:05:25;9.30;99.90
21340;DHT22;10828;47.064;15.422;2022-11-25T15:08:12;9.30;99.90
21340;DHT22;10828;47.064;15.422;2022-11-25T15:10:57;9.30;99.90
21340;DHT22;10828;47.064;15.422;2022-11-25T15:16:03;9.10;99.90
21340;DHT22;10828;47.064;15.422;2022-11-25T15:18:30;9.10;99.90
21340;DHT22;10828;47.064;15.422;2022-11-25T15:21:00;9.10;99.90
21340;DHT22;10828;47.064;15.422;2022-11-25T15:23:29;9.20;99.90
21340;DHT22;10828;47.064;15.422;2022-11-25T15:26:03;9.10;99.90
21340;DHT22;10828;47.064;15.422;2022-11-25T15:28:36;9.10;99.90
21340;DHT22;10828;47.064;15.422;2022-11-25T15:31:10;9.00;99.90
21340;DHT22;10828;47.064;15.422;2022-11-25T15:33:44;8.90;99.90
21340;DHT22;10828;47.064;15.422;2022-11-25T15:36:12;8.80;99.90
21340;DHT22;10828;47.064;15.422;2022-11-25T15:38:42;8.70;99.90
21340;DHT22;10828;47.064;15.422;2022-11-25T15:41:32;8.70;99.90
21340;DHT22;10828;47.064;15.422;2022-11-25T15:44:05;8.70;99.90
21340;DHT22;10828;47.064;15.422;2022-11-25T15:46:33;8.80;99.90
21340;DHT22;10828;47.064;15.422;2022-11-25T15:49:15;8.90;99.90
21340;DHT22;10828;47.064;15.422;2022-11-25T15:52:03;8.70;99.90
21340;DHT22;10828;47.064;15.422;2022-11-25T15:54:41;8.50;99.90
21340;DHT22;10828;47.064;15.422;2022-11-25T15:57:31;8.30;99.90
21340;DHT22;10828;47.064;15.422;2022-11-25T16:05:16;7.90;99.90
21340;DHT22;10828;47.064;15.422;2022-11-25T16:13:26;7.80;99.90
21340;DHT22;10828;47.064;15.422;2022-11-25T16:18:47;7.60;99.90
21340;DHT22;10828;47.064;15.422;2022-11-25T16:21:23;7.70;99.90
21340;DHT22;10828;47.064;15.422;2022-11-25T16:23:56;7.70;99.90
21340;DHT22;10828;47.064;15.422;2022-11-25T16:26:53;7.70;99.90
21340;DHT22;10828;47.064;15.422;2022-11-25T16:32:18;7.70;99.90
21340;DHT22;10828;47.064;15.422;2022-11-25T16:34:44;7.70;99.90
21340;DHT22;10828;47.064;15.422;2022-11-25T16:37:11;7.70;99.90
21340;DHT22;10828;47.064;15.422;2022-11-25T16:39:38;7.60;99.90
21340;DHT22;10828;47.064;15.422;2022-11-25T16:42:19;7.70;99.90
21340;DHT22;10828;47.064;15.422;2022-11-25T16:44:49;7.50;99.90
21340;DHT22;10828;47.064;15.422;2022-11-25T16:47:18;7.50;99.90
21340;DHT22;10828;47.064;15.422;2022-11-25T16:49:45;7.50;99.90
21340;DHT22;10828;47.064;15.422;2022-11-25T16:52:13;7.40;99.90
21340;DHT22;10828;47.064;15.422;2022-11-25T16:54:39;7.40;99.90
21340;DHT22;10828;47.064;15.422;2022-11-25T16:57:15;7.40;99.90
21340;DHT22;10828;47.064;15.422;2022-11-25T16:59:42;7.40;99.90
21340;DHT22;10828;47.064;15.422;2022-11-25T17:02:18;7.40;99.90
21340;DHT22;10828;47.064;15.422;2022-11-25T17:04:55;7.40;99.90
21340;DHT22;10828;47.064;15.422;2022-11-25T17:07:23;7.30;99.90
21340;DHT22;10828;47.064;15.422;2022-11-25T17:09:49;7.30;99.90
21340;DHT22;10828;47.064;15.422;2022-11-25T17:12:22;7.20;99.90
21340;DHT22;10828;47.064;15.422;2022-11-25T17:14:51;7.20;99.90
21340;DHT22;10828;47.064;15.422;2022-11-25T17:17:24;7.20;99.90
21340;DHT22;10828;47.064;15.422;2022-11-25T17:20:01;7.10;99.90
21340;DHT22;10828;47.064;15.422;2022-11-25T17:22:27;7.20;99.90
21340;DHT22;10828;47.064;15.422;2022-11-25T17:25:00;7.10;99.90
21340;DHT22;10828;47.064;15.422;2022-11-25T17:27:30;7.10;99.90
21340;DHT22;10828;47.064;15.422;2022-11-25T17:30:07;7.10;99.90
21340;DHT22;10828;47.064;15.422;2022-11-25T17:32:39;7.10;99.90
21340;DHT22;10828;47.064;15.422;2022-11-25T17:35:19;7.00;99.90
21340;DHT22;10828;47.064;15.422;2022-11-25T17:37:47;7.00;99.90
21340;DHT22;10828;47.064;15.422;2022-11-25T17:40:13;7.10;99.90
21340;DHT22;10828;47.064;15.422;2022-11-25T17:42:41;7.10;99.90
21340;DHT22;10828;47.064;15.422;2022-11-25T17:45:16;7.10;99.90
21340;DHT22;10828;47.064;15.422;2022-11-25T17:47:48;7.20;99.90
21340;DHT22;10828;47.064;15.422;2022-11-25T17:50:18;7.20;99.90
21340;DHT22;10828;47.064;15.422;2022-11-25T17:52:50;7.20;99.90
21340;DHT22;10828;47.064;15.422;2022-11-25T17:55:19;7.20;99.90
21340;DHT22;10828;47.064;15.422;2022-11-25T17:57:48;7.20;99.90
21340;DHT22;10828;47.064;15.422;2022-11-25T18:00:18;7.10;99.90
21340;DHT22;10828;47.064;15.422;2022-11-25T18:02:45;7.00;99.90
21340;DHT22;10828;47.064;15.422;2022-11-25T18:05:19;7.00;99.90
21340;DHT22;10828;47.064;15.422;2022-11-25T18:07:54;7.00;99.90
21340;DHT22;10828;47.064;15.422;2022-11-25T18:10:25;7.00;99.90